createdAt,value
2019-05-21T00:00:28.411Z,13.20
2019-05-21T00:02:55.769Z,13.20
2019-05-21T00:05:23.230Z,13.20
2019-05-21T00:07:50.377Z,13.20
2019-05-21T00:10:17.939Z,13.20
2019-05-21T00:12:45.399Z,13.10
2019-05-21T00:15:13.260Z,13.10
2019-05-21T00:17:40.410Z,13.00
2019-05-21T00:20:08.595Z,12.90
2019-05-21T00:22:36.218Z,12.90
2019-05-21T00:25:05.251Z,12.90
2019-05-21T00:27:32.622Z,12.90
2019-05-21T00:30:56.270Z,12.90
2019-05-21T00:34:19.938Z,12.80
2019-05-21T00:37:42.994Z,12.80
2019-05-21T00:41:06.050Z,12.80
2019-05-21T00:43:53.783Z,12.90
2019-05-21T00:46:21.345Z,12.90
2019-05-21T00:48:49.205Z,12.90
2019-05-21T00:51:16.834Z,12.80
2019-05-21T00:53:44.170Z,12.80
2019-05-21T00:56:11.565Z,12.80
2019-05-21T00:58:38.925Z,12.80
2019-05-21T01:01:06.396Z,12.80
2019-05-21T01:03:33.861Z,12.80
2019-05-21T01:06:01.350Z,12.80
2019-05-21T01:08:28.855Z,12.80
2019-05-21T01:10:56.456Z,12.80
2019-05-21T01:13:24.067Z,12.80
2019-05-21T01:15:51.736Z,12.80
2019-05-21T01:18:19.015Z,12.80
2019-05-21T01:20:46.552Z,12.80
2019-05-21T01:23:14.140Z,12.80
2019-05-21T01:25:41.759Z,12.70
2019-05-21T01:28:09.340Z,12.60
2019-05-21T01:30:37.173Z,12.60
2019-05-21T01:33:04.745Z,12.50
2019-05-21T01:35:31.894Z,12.40
2019-05-21T01:37:59.353Z,12.30
2019-05-21T01:40:27.074Z,12.30
2019-05-21T01:42:54.150Z,12.30
2019-05-21T01:45:21.544Z,12.30
2019-05-21T01:47:48.958Z,12.20
2019-05-21T01:50:16.412Z,12.20
2019-05-21T01:52:44.007Z,12.20
2019-05-21T01:55:11.549Z,12.10
2019-05-21T01:57:39.201Z,12.10
2019-05-21T02:00:07.037Z,12.10
2019-05-21T02:02:34.564Z,12.10
2019-05-21T02:05:01.771Z,12.00
2019-05-21T02:07:29.232Z,12.00
2019-05-21T02:09:56.960Z,12.00
2019-05-21T02:12:24.557Z,12.00
2019-05-21T02:14:51.967Z,12.00
2019-05-21T02:17:19.570Z,12.00
2019-05-21T02:19:47.022Z,12.00
2019-05-21T02:22:14.449Z,12.00
2019-05-21T02:24:41.934Z,11.90
2019-05-21T02:27:09.189Z,11.90
2019-05-21T02:29:36.650Z,11.90
2019-05-21T02:32:04.511Z,11.90
2019-05-21T02:34:31.965Z,11.80
2019-05-21T02:36:59.735Z,11.80
2019-05-21T02:39:27.160Z,11.80
2019-05-21T02:41:54.439Z,11.70
2019-05-21T02:44:21.886Z,11.70
2019-05-21T02:46:49.448Z,11.70
2019-05-21T02:49:16.805Z,11.70
2019-05-21T02:51:44.360Z,11.70
2019-05-21T02:54:11.547Z,11.70
2019-05-21T02:56:39.055Z,11.70
2019-05-21T02:59:06.425Z,11.70
2019-05-21T03:04:14.661Z,11.70
2019-05-21T03:06:42.400Z,11.70
2019-05-21T03:09:09.865Z,11.70
2019-05-21T03:11:37.336Z,11.70
2019-05-21T03:14:05.069Z,11.70
2019-05-21T03:16:32.439Z,11.70
2019-05-21T03:19:00.007Z,11.60
2019-05-21T03:21:27.442Z,11.60
2019-05-21T03:23:54.894Z,11.60
2019-05-21T03:26:22.056Z,11.60
2019-05-21T03:28:49.504Z,11.60
2019-05-21T03:31:17.360Z,11.70
2019-05-21T03:33:44.949Z,11.70
2019-05-21T03:36:31.042Z,11.70
2019-05-21T03:38:41.890Z,11.70
2019-05-21T03:41:09.268Z,11.70
2019-05-21T03:43:36.899Z,11.60
2019-05-21T03:46:04.389Z,11.60
2019-05-21T03:48:31.921Z,11.60
2019-05-21T03:50:59.325Z,11.60
2019-05-21T03:53:26.629Z,11.60
2019-05-21T03:55:54.509Z,11.60
2019-05-21T03:58:22.011Z,11.60
2019-05-21T04:00:49.462Z,11.60
2019-05-21T04:03:16.977Z,11.60
2019-05-21T04:05:44.427Z,11.60
2019-05-21T04:08:11.979Z,11.60
2019-05-21T04:10:39.431Z,11.60
2019-05-21T04:13:07.464Z,11.60
2019-05-21T04:15:39.422Z,11.60
2019-05-21T04:18:11.531Z,11.60
2019-05-21T04:20:38.954Z,11.60
2019-05-21T04:23:06.338Z,11.60
2019-05-21T04:25:34.040Z,11.60
2019-05-21T04:28:02.024Z,11.60
2019-05-21T04:30:29.520Z,11.60
2019-05-21T04:32:57.054Z,11.70
2019-05-21T04:35:24.539Z,11.70
2019-05-21T04:37:52.060Z,11.70
2019-05-21T04:40:19.668Z,11.70
2019-05-21T04:42:47.314Z,11.70
2019-05-21T04:45:14.991Z,11.80
2019-05-21T04:47:42.497Z,11.80
2019-05-21T04:50:10.035Z,11.90
2019-05-21T04:52:37.326Z,12.00
2019-05-21T04:55:05.836Z,12.00
2019-05-21T04:57:37.158Z,12.00
2019-05-21T05:00:04.756Z,12.10
2019-05-21T05:02:32.200Z,12.20
2019-05-21T05:04:59.765Z,12.30
2019-05-21T05:07:28.954Z,12.30
2019-05-21T05:09:56.719Z,12.40
2019-05-21T05:12:24.166Z,12.40
2019-05-21T05:14:51.726Z,12.50
2019-05-21T05:17:18.910Z,12.50
2019-05-21T05:19:47.038Z,12.50
2019-05-21T05:22:14.758Z,12.50
2019-05-21T05:24:42.249Z,12.50
2019-05-21T05:27:09.711Z,12.60
2019-05-21T05:29:37.089Z,12.60
2019-05-21T05:32:04.759Z,12.70
2019-05-21T05:34:32.242Z,12.80
2019-05-21T05:36:59.643Z,12.80
2019-05-21T05:39:27.108Z,12.80
2019-05-21T05:41:54.655Z,12.70
2019-05-21T05:44:22.320Z,12.70
2019-05-21T05:46:49.780Z,12.70
2019-05-21T05:49:24.913Z,12.60
2019-05-21T05:51:52.364Z,12.60
2019-05-21T05:54:19.778Z,12.60
2019-05-21T05:56:47.212Z,12.50
2019-05-21T05:59:14.812Z,12.50
2019-05-21T06:04:09.269Z,12.20
2019-05-21T06:06:36.906Z,12.20
2019-05-21T06:09:05.070Z,12.20
2019-05-21T06:11:32.376Z,12.10
2019-05-21T06:13:59.940Z,12.10
2019-05-21T06:16:27.429Z,12.10
2019-05-21T06:18:54.960Z,12.10
2019-05-21T06:21:22.469Z,12.10
2019-05-21T06:23:49.944Z,12.10
2019-05-21T06:26:17.414Z,12.10
2019-05-21T06:28:44.913Z,12.10
2019-05-21T06:31:12.399Z,12.20
2019-05-21T06:33:39.927Z,12.20
2019-05-21T06:36:07.191Z,12.20
2019-05-21T06:38:34.904Z,12.20
2019-05-21T06:41:02.566Z,12.20
2019-05-21T06:43:30.057Z,12.30
2019-05-21T06:45:57.626Z,12.40
2019-05-21T06:48:25.185Z,12.30
2019-05-21T06:50:52.635Z,12.40
2019-05-21T06:53:19.789Z,12.50
2019-05-21T06:55:47.510Z,12.60
2019-05-21T06:58:15.122Z,12.60
2019-05-21T07:00:42.668Z,12.60
2019-05-21T07:03:10.424Z,12.60
2019-05-21T07:05:37.607Z,12.60
2019-05-21T07:08:05.384Z,12.60
2019-05-21T07:10:34.159Z,12.60
2019-05-21T07:13:01.810Z,12.50
2019-05-21T07:15:29.243Z,12.50
2019-05-21T07:17:56.709Z,12.50
2019-05-21T07:20:24.774Z,12.50
2019-05-21T07:22:52.334Z,12.60
2019-05-21T07:25:20.024Z,12.60
2019-05-21T07:27:47.348Z,12.60
2019-05-21T07:30:15.299Z,12.60
2019-05-21T07:32:42.681Z,12.70
2019-05-21T07:35:10.495Z,12.70
2019-05-21T07:37:38.040Z,12.70
2019-05-21T07:40:07.402Z,12.80
2019-05-21T07:42:34.826Z,12.80
2019-05-21T07:45:02.802Z,12.80
2019-05-21T07:47:30.387Z,12.90
2019-05-21T07:49:58.029Z,12.90
2019-05-21T07:52:26.059Z,12.90
2019-05-21T07:54:53.664Z,12.90
2019-05-21T07:57:21.215Z,12.90
2019-05-21T07:59:48.710Z,12.80
2019-05-21T08:02:15.928Z,12.90
2019-05-21T08:04:43.494Z,12.80
2019-05-21T08:07:11.362Z,12.80
2019-05-21T08:09:38.624Z,12.70
2019-05-21T08:12:22.741Z,12.70
2019-05-21T08:14:35.594Z,12.80
2019-05-21T08:17:03.131Z,12.80
2019-05-21T08:19:31.944Z,12.80
2019-05-21T08:21:59.248Z,12.80
2019-05-21T08:24:26.609Z,12.80
2019-05-21T08:26:54.064Z,12.80
2019-05-21T08:29:21.519Z,12.80
2019-05-21T08:31:49.083Z,12.90
2019-05-21T08:34:16.717Z,12.90
2019-05-21T08:36:44.408Z,12.90
2019-05-21T08:39:27.424Z,13.00
2019-05-21T08:41:41.265Z,13.00
2019-05-21T08:44:08.963Z,13.10
2019-05-21T08:46:36.504Z,13.20
2019-05-21T08:49:04.045Z,13.30
2019-05-21T08:51:32.544Z,13.40
2019-05-21T08:54:00.003Z,13.50
2019-05-21T08:56:27.838Z,13.60
2019-05-21T08:58:56.209Z,13.70
2019-05-21T09:01:23.958Z,13.70
2019-05-21T09:03:51.513Z,13.80
2019-05-21T09:06:19.098Z,13.80
2019-05-21T09:08:46.650Z,13.80
2019-05-21T09:11:14.004Z,13.70
2019-05-21T09:13:41.505Z,13.80
2019-05-21T09:16:08.990Z,13.70
2019-05-21T09:18:36.375Z,13.70
2019-05-21T09:21:04.404Z,13.70
2019-05-21T09:23:32.010Z,13.60
2019-05-21T09:25:59.898Z,13.70
2019-05-21T09:28:27.224Z,13.70
2019-05-21T09:30:54.879Z,13.70
2019-05-21T09:33:22.439Z,13.70
2019-05-21T09:35:49.994Z,13.70
2019-05-21T09:38:18.252Z,13.60
2019-05-21T09:40:45.975Z,13.60
2019-05-21T09:43:13.635Z,13.50
2019-05-21T09:45:41.364Z,13.50
2019-05-21T09:48:08.914Z,13.40
2019-05-21T09:50:36.581Z,13.30
2019-05-21T09:53:04.000Z,13.30
2019-05-21T09:55:33.627Z,13.20
2019-05-21T09:58:11.202Z,13.20
2019-05-21T10:00:49.427Z,13.10
2019-05-21T10:03:18.947Z,13.10
2019-05-21T10:05:46.648Z,13.10
2019-05-21T10:08:14.118Z,13.10
2019-05-21T10:10:41.584Z,13.10
2019-05-21T10:13:09.092Z,13.20
2019-05-21T10:15:36.528Z,13.20
2019-05-21T10:18:04.590Z,13.30
2019-05-21T10:20:32.199Z,13.30
2019-05-21T10:22:59.723Z,13.30
2019-05-21T10:25:27.643Z,13.40
2019-05-21T10:27:55.163Z,13.30
2019-05-21T10:30:22.657Z,13.30
2019-05-21T10:32:50.113Z,13.40
2019-05-21T10:35:17.611Z,13.40
2019-05-21T10:37:54.360Z,13.40
2019-05-21T10:40:14.963Z,13.40
2019-05-21T10:42:42.639Z,13.30
2019-05-21T10:45:10.524Z,13.40
2019-05-21T10:47:37.756Z,13.40
2019-05-21T10:50:07.972Z,13.30
2019-05-21T10:52:35.433Z,13.20
2019-05-21T10:55:04.650Z,13.30
2019-05-21T10:57:32.629Z,13.30
2019-05-21T11:00:00.169Z,13.20
2019-05-21T11:02:32.160Z,13.20
2019-05-21T11:05:10.665Z,13.20
2019-05-21T11:07:38.233Z,13.20
2019-05-21T11:10:08.408Z,13.20
2019-05-21T11:12:35.789Z,13.20
2019-05-21T11:15:06.599Z,13.20
2019-05-21T11:17:48.276Z,13.20
2019-05-21T11:20:05.768Z,13.30
2019-05-21T11:22:33.193Z,13.30
2019-05-21T11:25:00.479Z,13.30
2019-05-21T11:27:27.986Z,13.30
2019-05-21T11:29:55.540Z,13.30
2019-05-21T11:32:23.104Z,13.20
2019-05-21T11:34:50.844Z,13.20
2019-05-21T11:37:18.375Z,13.20
2019-05-21T11:39:46.119Z,13.20
2019-05-21T11:42:13.634Z,13.20
2019-05-21T11:44:40.999Z,13.20
2019-05-21T11:47:08.752Z,13.20
2019-05-21T11:49:36.301Z,13.20
2019-05-21T11:52:04.201Z,13.20
2019-05-21T11:54:31.870Z,13.20
2019-05-21T11:56:59.507Z,13.10
2019-05-21T11:59:26.810Z,13.20
2019-05-21T12:01:54.317Z,13.20
2019-05-21T12:04:21.980Z,13.20
2019-05-21T12:06:49.524Z,13.20
2019-05-21T12:09:16.993Z,13.20
2019-05-21T12:11:44.953Z,13.20
2019-05-21T12:14:12.617Z,13.30
2019-05-21T12:16:40.176Z,13.30
2019-05-21T12:19:08.629Z,13.30
2019-05-21T12:21:36.041Z,13.30
2019-05-21T12:24:03.672Z,13.30
2019-05-21T12:26:31.487Z,13.30
2019-05-21T12:28:59.298Z,13.30
2019-05-21T12:31:26.627Z,13.30
2019-05-21T12:33:54.020Z,13.30
2019-05-21T12:36:21.474Z,13.30
2019-05-21T12:38:48.915Z,13.30
2019-05-21T12:41:16.166Z,13.30
2019-05-21T12:43:43.652Z,13.30
2019-05-21T12:46:11.375Z,13.30
2019-05-21T12:48:38.538Z,13.30
2019-05-21T12:51:05.992Z,13.40
2019-05-21T12:53:33.339Z,13.40
2019-05-21T12:56:00.889Z,13.40
2019-05-21T12:58:28.335Z,13.50
2019-05-21T13:00:55.822Z,13.50
2019-05-21T13:03:23.207Z,13.50
2019-05-21T13:05:50.752Z,13.50
2019-05-21T13:08:18.185Z,13.50
2019-05-21T13:10:45.656Z,13.60
2019-05-21T13:13:13.356Z,13.60
2019-05-21T13:15:40.905Z,13.60
2019-05-21T13:18:08.385Z,13.80
2019-05-21T13:20:36.060Z,13.70
2019-05-21T13:23:03.669Z,13.60
2019-05-21T13:25:31.410Z,13.60
2019-05-21T13:27:58.890Z,13.70
2019-05-21T13:30:27.071Z,13.60
2019-05-21T13:32:54.470Z,13.70
2019-05-21T13:35:21.997Z,13.70
2019-05-21T13:37:49.705Z,13.70
2019-05-21T13:40:18.681Z,13.80
2019-05-21T13:42:46.125Z,13.80
2019-05-21T13:45:13.712Z,13.80
2019-05-21T13:47:41.164Z,13.80
2019-05-21T13:50:09.652Z,13.80
2019-05-21T13:52:37.209Z,13.80
2019-05-21T13:55:07.966Z,13.80
2019-05-21T13:57:35.965Z,13.80
2019-05-21T14:00:10.928Z,13.90
2019-05-21T14:02:40.321Z,13.90
2019-05-21T14:05:09.391Z,13.90
2019-05-21T14:07:37.311Z,13.90
2019-05-21T14:10:19.493Z,13.90
2019-05-21T14:12:36.484Z,13.80
2019-05-21T14:15:05.294Z,13.90
2019-05-21T14:17:32.854Z,13.80
2019-05-21T14:20:00.490Z,13.80
2019-05-21T14:22:28.077Z,13.80
2019-05-21T14:24:56.128Z,13.80
2019-05-21T14:27:23.685Z,13.80
2019-05-21T14:29:51.192Z,13.80
2019-05-21T14:32:18.841Z,13.80
2019-05-21T14:35:00.200Z,13.80
2019-05-21T14:37:15.735Z,13.80
2019-05-21T14:39:43.332Z,13.80
2019-05-21T14:42:10.798Z,13.80
2019-05-21T14:44:38.045Z,13.90
2019-05-21T14:47:05.605Z,13.90
2019-05-21T14:49:33.324Z,14.00
2019-05-21T14:52:00.813Z,14.00
2019-05-21T14:54:28.420Z,14.00
2019-05-21T14:56:55.826Z,14.10
2019-05-21T14:59:24.932Z,14.10
2019-05-21T15:01:52.229Z,14.10
2019-05-21T15:04:20.005Z,14.20
2019-05-21T15:06:47.527Z,14.20
2019-05-21T15:09:14.966Z,14.20
2019-05-21T15:11:42.421Z,14.10
2019-05-21T15:14:10.230Z,14.10
2019-05-21T15:16:37.641Z,14.20
2019-05-21T15:19:05.776Z,14.20
2019-05-21T15:21:35.207Z,14.20
2019-05-21T15:24:03.276Z,14.20
2019-05-21T15:26:31.145Z,14.20
2019-05-21T15:29:00.034Z,14.20
2019-05-21T15:31:27.595Z,14.20
2019-05-21T15:33:55.152Z,14.20
2019-05-21T15:36:22.420Z,14.10
2019-05-21T15:38:51.180Z,14.10
2019-05-21T15:41:18.879Z,14.10
2019-05-21T15:43:46.720Z,14.10
2019-05-21T15:46:14.225Z,14.10
2019-05-21T15:48:41.688Z,14.10
2019-05-21T15:51:09.071Z,14.10
2019-05-21T15:53:36.158Z,14.10
2019-05-21T15:56:03.578Z,14.10
2019-05-21T15:58:30.792Z,14.10
2019-05-21T16:00:58.024Z,14.10
2019-05-21T16:03:25.146Z,14.10
2019-05-21T16:05:52.457Z,14.20
2019-05-21T16:08:19.946Z,14.20
2019-05-21T16:10:47.252Z,14.20
2019-05-21T16:13:14.577Z,14.20
2019-05-21T16:15:41.903Z,14.30
2019-05-21T16:18:09.456Z,14.20
2019-05-21T16:20:36.641Z,14.30
2019-05-21T16:23:03.998Z,14.30
2019-05-21T16:25:31.303Z,14.30
2019-05-21T16:27:58.662Z,14.40
2019-05-21T16:30:26.055Z,14.40
2019-05-21T16:32:53.378Z,14.50
2019-05-21T16:35:20.502Z,14.50
2019-05-21T16:37:47.747Z,14.50
2019-05-21T16:40:16.446Z,14.50
2019-05-21T16:42:43.811Z,14.50
2019-05-21T16:45:11.473Z,14.50
2019-05-21T16:47:46.074Z,14.40
2019-05-21T16:50:10.568Z,14.50
2019-05-21T16:52:38.355Z,14.40
2019-05-21T16:55:05.757Z,14.40
2019-05-21T16:57:33.118Z,14.40
2019-05-21T17:00:00.405Z,14.40
2019-05-21T17:02:28.142Z,14.40
2019-05-21T17:04:55.560Z,14.40
2019-05-21T17:07:23.196Z,14.40
2019-05-21T17:09:51.147Z,14.30
2019-05-21T17:12:19.310Z,14.40
2019-05-21T17:14:49.818Z,14.30
2019-05-21T17:17:16.504Z,14.30
2019-05-21T17:19:44.082Z,14.30
2019-05-21T17:22:11.198Z,14.30
2019-05-21T17:24:39.168Z,14.20
2019-05-21T17:27:06.314Z,14.20
2019-05-21T17:29:33.757Z,14.10
2019-05-21T17:32:01.066Z,14.10
2019-05-21T17:34:28.566Z,14.00
2019-05-21T17:36:56.365Z,13.90
2019-05-21T17:39:23.707Z,13.90
2019-05-21T17:41:51.136Z,13.80
2019-05-21T17:44:18.831Z,13.80
2019-05-21T17:46:46.492Z,13.80
2019-05-21T17:49:14.094Z,13.80
2019-05-21T17:51:41.410Z,13.70
2019-05-21T17:54:08.634Z,13.70
2019-05-21T17:56:36.547Z,13.70
2019-05-21T17:59:03.918Z,13.70
2019-05-21T18:01:32.448Z,13.70
2019-05-21T18:04:00.297Z,13.60
2019-05-21T18:06:28.579Z,13.60
2019-05-21T18:08:55.974Z,13.60
2019-05-21T18:11:23.489Z,13.60
2019-05-21T18:13:51.140Z,13.50
2019-05-21T18:16:20.147Z,13.50
2019-05-21T18:18:47.725Z,13.40
2019-05-21T18:21:16.105Z,13.40
2019-05-21T18:23:43.640Z,13.40
2019-05-21T18:26:11.195Z,13.40
2019-05-21T18:28:38.770Z,13.40
2019-05-21T18:31:06.905Z,13.40
2019-05-21T18:33:34.715Z,13.30
2019-05-21T18:36:02.624Z,13.30
2019-05-21T18:38:30.735Z,13.30
2019-05-21T18:40:58.412Z,13.20
2019-05-21T18:43:26.053Z,13.20
2019-05-21T18:45:53.510Z,13.20
2019-05-21T18:48:21.065Z,13.20
2019-05-21T18:50:48.723Z,13.20
2019-05-21T18:53:16.240Z,13.20
2019-05-21T18:55:43.823Z,13.20
2019-05-21T18:58:11.640Z,13.10
2019-05-21T19:00:39.270Z,13.10
2019-05-21T19:03:06.735Z,13.10
2019-05-21T19:05:34.270Z,13.10
2019-05-21T19:08:02.464Z,13.20
2019-05-21T19:10:30.016Z,13.10
2019-05-21T19:13:00.671Z,13.10
2019-05-21T19:15:26.381Z,13.10
2019-05-21T19:17:53.803Z,13.20
2019-05-21T19:20:21.372Z,13.20
2019-05-21T19:22:49.646Z,13.20
2019-05-21T19:25:17.772Z,13.10
2019-05-21T19:27:45.074Z,13.10
2019-05-21T19:30:14.936Z,13.10
2019-05-21T19:32:42.649Z,13.10
2019-05-21T19:35:11.456Z,13.10
2019-05-21T19:37:38.543Z,13.10
2019-05-21T19:40:06.785Z,13.10
2019-05-21T19:42:34.907Z,13.10
2019-05-21T19:45:04.864Z,13.10
2019-05-21T19:47:32.330Z,13.00
2019-05-21T19:49:59.958Z,13.00
2019-05-21T19:54:57.222Z,12.90
2019-05-21T19:57:27.128Z,12.90
2019-05-21T19:59:54.588Z,12.90
2019-05-21T20:02:22.169Z,12.90
2019-05-21T20:04:49.879Z,13.00
2019-05-21T20:07:19.328Z,12.90
2019-05-21T20:09:48.607Z,12.80
2019-05-21T20:12:15.821Z,12.80
2019-05-21T20:14:44.035Z,12.80
2019-05-21T20:17:13.579Z,12.80
2019-05-21T20:19:43.351Z,12.80
2019-05-21T20:22:11.869Z,12.80
2019-05-21T20:24:40.523Z,12.70
2019-05-21T20:27:08.289Z,12.70
2019-05-21T20:29:36.014Z,12.70
2019-05-21T20:32:05.462Z,12.70
2019-05-21T20:34:33.409Z,12.70
2019-05-21T20:37:01.770Z,12.70
2019-05-21T20:39:30.280Z,12.60
2019-05-21T20:41:58.607Z,12.60
2019-05-21T20:44:26.789Z,12.60
2019-05-21T20:46:56.427Z,12.60
2019-05-21T20:49:24.784Z,12.60
2019-05-21T20:51:52.399Z,12.60
2019-05-21T20:54:21.984Z,12.60
2019-05-21T20:56:50.825Z,12.60
2019-05-21T20:59:18.424Z,12.60
2019-05-21T21:01:46.281Z,12.60
2019-05-21T21:04:13.781Z,12.60
2019-05-21T21:06:41.402Z,12.60
2019-05-21T21:09:09.964Z,12.60
2019-05-21T21:11:38.453Z,12.60
2019-05-21T21:14:17.440Z,12.60
2019-05-21T21:16:37.262Z,12.60
2019-05-21T21:19:05.237Z,12.60
2019-05-21T21:21:33.761Z,12.60
2019-05-21T21:24:02.725Z,12.60
2019-05-21T21:26:30.671Z,12.60
2019-05-21T21:28:58.965Z,12.60
2019-05-21T21:31:26.799Z,12.60
2019-05-21T21:33:54.266Z,12.60
2019-05-21T21:36:21.831Z,12.60
2019-05-21T21:38:49.375Z,12.60
2019-05-21T21:41:17.757Z,12.60
2019-05-21T21:43:45.245Z,12.60
2019-05-21T21:46:12.873Z,12.60
2019-05-21T21:48:41.564Z,12.60
2019-05-21T21:51:09.491Z,12.60
2019-05-21T21:53:38.206Z,12.60
2019-05-21T21:56:05.577Z,12.70
2019-05-21T21:58:33.213Z,12.60
2019-05-21T22:01:33.320Z,12.70
2019-05-21T22:04:04.017Z,12.70
2019-05-21T22:06:34.824Z,12.70
2019-05-21T22:09:05.033Z,12.70
2019-05-21T22:11:33.324Z,12.70
2019-05-21T22:14:02.070Z,12.70
2019-05-21T22:16:30.742Z,12.70
2019-05-21T22:18:58.632Z,12.70
2019-05-21T22:21:26.723Z,12.60
2019-05-21T22:23:56.004Z,12.60
2019-05-21T22:26:24.011Z,12.60
2019-05-21T22:28:51.403Z,12.60
2019-05-21T22:31:19.067Z,12.60
2019-05-21T22:33:46.994Z,12.60
2019-05-21T22:36:14.780Z,12.60
2019-05-21T22:38:43.109Z,12.50
2019-05-21T22:41:10.493Z,12.50
2019-05-21T22:43:38.397Z,12.50
2019-05-21T22:46:06.203Z,12.40
2019-05-21T22:48:33.688Z,12.40
2019-05-21T22:51:01.649Z,12.40
2019-05-21T22:53:28.854Z,12.40
2019-05-21T22:55:56.775Z,12.40
2019-05-21T22:58:24.299Z,12.40
2019-05-21T23:00:52.854Z,12.40
2019-05-21T23:03:20.714Z,12.40
2019-05-21T23:05:48.449Z,12.40
2019-05-21T23:08:16.840Z,12.40
2019-05-21T23:10:44.034Z,12.40
2019-05-21T23:13:11.539Z,12.30
2019-05-21T23:15:39.154Z,12.30
2019-05-21T23:18:06.626Z,12.30
2019-05-21T23:20:36.113Z,12.30
2019-05-21T23:23:04.485Z,12.20
2019-05-21T23:25:34.196Z,12.30
2019-05-21T23:28:02.383Z,12.20
2019-05-21T23:30:29.929Z,12.20
2019-05-21T23:32:57.260Z,12.20
2019-05-21T23:35:26.009Z,12.20
2019-05-21T23:37:55.993Z,12.10
2019-05-21T23:40:25.475Z,12.10
2019-05-21T23:42:53.159Z,12.10
2019-05-21T23:45:20.705Z,12.10
2019-05-21T23:47:48.635Z,12.10
2019-05-21T23:50:17.934Z,12.10
2019-05-21T23:52:46.342Z,12.10
2019-05-21T23:55:14.685Z,12.10
2019-05-21T23:57:43.569Z,12.10
